Time;durP1;ratioP1;P1;durP2;ratioP2;P2;SDS_P1;SDS_P2;PMS_P1;PMS_P2;Temp;Humidity;BMP_temperature;BMP_pressure;BME280_temperature;BME280_humidity;BME280_pressure;Samples;Min_cycle;Max_cycle;Signal;HPM_P1;HPM_P2
2022/10/24 07:23:56;;;;;;;;;5.25;4.00;;;;;16.38;82.74;100638.94;5627395;22;50587;-68
2022/10/24 07:26:23;;;;;;;;;1.75;1.75;;;;;15.66;82.23;100512.16;4982139;28;49665;-78
2022/10/24 07:28:53;;;;;;;;;4.00;2.75;;;;;17.04;82.20;100749.94;4956877;28;49752;-71
2022/10/24 07:31:24;;;;;;;;;3.75;2.75;;;;;16.60;81.73;100669.75;4970864;28;49596;-73
2022/10/24 07:33:51;;;;;;;;;7.50;3.00;;;;;16.76;81.56;100665.25;4973818;28;49555;-78
2022/10/24 07:36:19;;;;;;;;;3.00;2.00;;;;;16.77;81.37;100695.31;4968745;28;49757;-80
2022/10/24 07:38:47;;;;;;;;;1.00;1.00;;;;;17.09;81.52;100733.13;4959612;28;49782;-74
2022/10/24 07:41:13;;;;;;;;;2.50;2.00;;;;;16.19;81.26;100584.28;4953179;28;49885;-73
2022/10/24 07:43:38;;;;;;;;;5.00;2.25;;;;;16.79;81.63;100696.16;4954410;28;49769;-73
2022/10/24 07:46:06;;;;;;;;;3.50;0.75;;;;;16.22;81.83;100614.31;4952979;28;49699;-75
2022/10/24 07:48:32;;;;;;;;;5.00;2.00;;;;;15.77;81.88;100503.31;4953860;28;50086;-73
2022/10/24 07:50:57;;;;;;;;;2.25;1.75;;;;;16.64;81.69;100652.06;4952644;28;49688;-72
2022/10/24 07:53:24;;;;;;;;;4.50;2.00;;;;;16.76;81.12;100665.25;4957078;28;49694;-76
2022/10/24 07:55:50;;;;;;;;;3.00;1.75;;;;;16.54;81.25;100634.44;4985994;28;49965;-72
2022/10/24 07:58:15;;;;;;;;;4.75;3.00;;;;;16.88;81.12;100691.69;4984814;28;49827;-69
2022/10/24 08:00:41;;;;;;;;;4.00;3.00;;;;;16.96;81.28;100699.59;4966992;28;50306;-74
2022/10/24 08:03:06;;;;;;;;;5.00;2.25;;;;;17.32;80.99;100758.63;4956615;28;49917;-74
2022/10/24 08:05:39;;;;;;;;;3.25;1.75;;;;;16.89;81.08;100689.94;4952201;28;49858;-73
2022/10/24 08:08:04;;;;;;;;;4.75;2.75;;;;;17.25;80.94;100751.59;4967004;28;49775;-76
2022/10/24 08:10:30;;;;;;;;;3.75;2.00;;;;;17.37;81.39;100764.75;4950921;28;50846;-77
2022/10/24 08:12:55;;;;;;;;;4.75;3.25;;;;;17.30;80.95;100755.09;4951898;28;49992;-77
2022/10/24 08:15:21;;;;;;;;;5.75;4.25;;;;;16.57;80.95;100667.09;4951780;28;49765;-73
2022/10/24 08:17:47;;;;;;;;;4.00;1.25;;;;;17.11;80.79;100747.25;4934523;28;49959;-73
2022/10/24 08:20:12;;;;;;;;;6.00;4.25;;;;;17.26;81.06;100766.59;4951470;28;50861;-73
2022/10/24 08:22:38;;;;;;;;;3.25;2.25;;;;;16.87;81.37;100713.78;4953838;28;49760;-72
2022/10/24 08:25:05;;;;;;;;;5.25;2.00;;;;;16.93;81.46;100712.00;4970579;28;50564;-73
2022/10/24 08:27:30;;;;;;;;;5.75;3.00;;;;;17.08;81.47;100749.94;4970513;28;49900;-73
2022/10/24 08:29:56;;;;;;;;;4.00;2.75;;;;;17.06;81.89;100764.97;4952613;28;51949;-78
2022/10/24 08:32:21;;;;;;;;;3.00;3.00;;;;;16.20;81.22;100588.69;4970489;28;49762;-73
2022/10/24 08:34:47;;;;;;;;;4.75;3.25;;;;;17.42;80.99;100789.50;4970372;28;50224;-73
2022/10/24 08:37:12;;;;;;;;;2.00;1.00;;;;;16.98;81.08;100707.53;4970265;28;49883;-73
2022/10/24 08:39:38;;;;;;;;;5.75;3.00;;;;;17.27;81.16;100744.50;4970122;28;49874;-78
2022/10/24 08:42:07;;;;;;;;;2.50;2.50;;;;;17.61;80.51;100776.97;4971231;28;49727;-77
2022/10/24 08:44:36;;;;;;;;;5.00;2.25;;;;;16.77;79.71;100648.47;4955161;28;49771;-79
2022/10/24 08:47:22;;;;;;;;;5.25;3.50;;;;;17.97;79.34;100799.75;4955548;28;49713;-77
2022/10/24 08:49:53;;;;;;;;;2.50;2.00;;;;;17.96;78.56;100790.00;4955132;28;50373;-79
2022/10/24 08:52:26;;;;;;;;;11.50;2.25;;;;;18.04;78.38;100798.75;4954680;28;49852;-78
2022/10/24 08:54:54;;;;;;;;;2.00;2.00;;;;;17.66;78.24;100724.72;4955090;28;49849;-73
2022/10/24 08:57:27;;;;;;;;;3.50;2.50;;;;;17.12;78.25;100656.19;4957304;28;49964;-72
2022/10/24 08:59:58;;;;;;;;;4.00;1.25;;;;;17.58;77.48;100708.88;4967928;28;50868;-75
2022/10/24 09:02:31;;;;;;;;;5.25;4.00;;;;;17.96;77.23;100740.44;4975656;28;50128;-79
2022/10/24 09:05:15;;;;;;;;;8.00;2.00;;;;;18.49;76.63;100812.50;4964091;28;50888;-74
2022/10/24 09:07:45;;;;;;;;;1.75;1.75;;;;;18.33;75.99;100757.75;4971070;28;49787;-77
2022/10/24 09:10:42;;;;;;;;;4.50;0.75;;;;;18.46;75.78;100773.56;4973656;28;49982;-74
2022/10/24 09:13:13;;;;;;;;;4.25;3.75;;;;;18.78;74.87;100818.41;4973712;28;50018;-78
2022/10/24 09:15:40;;;;;;;;;3.75;2.50;;;;;18.87;75.12;100820.94;4973502;28;49822;-73
2022/10/24 09:18:27;;;;;;;;;7.50;6.50;;;;;18.87;74.13;100802.31;4973670;28;49904;-72
2022/10/24 09:20:53;;;;;;;;;4.25;3.00;;;;;18.95;73.64;100822.66;4973300;28;49963;-74
2022/10/24 09:23:22;;;;;;;;;5.00;2.50;;;;;18.91;73.65;100802.28;4972924;28;49736;-73
2022/10/24 09:25:51;;;;;;;;;2.50;2.50;;;;;19.08;73.50;100830.44;4955855;28;49688;-76
2022/10/24 09:28:17;;;;;;;;;2.00;1.00;;;;;19.13;72.95;100836.59;4973748;28;50036;-73
2022/10/24 09:30:43;;;;;;;;;4.00;2.75;;;;;19.19;73.14;100832.06;4972918;28;49804;-75
2022/10/24 09:33:33;;;;;;;;;3.50;3.00;;;;;18.93;71.84;100805.81;4973269;28;49634;-72
2022/10/24 09:36:02;;;;;;;;;4.00;3.00;;;;;19.07;72.12;100817.16;4970366;28;49789;-74
2022/10/24 09:38:37;;;;;;;;;5.75;3.75;;;;;19.07;72.36;100811.84;4954995;28;49646;-70
2022/10/24 09:41:25;;;;;;;;;4.75;2.00;;;;;19.25;71.10;100821.34;4954679;28;50739;-71
2022/10/24 09:43:56;;;;;;;;;9.25;4.75;;;;;19.26;70.43;100805.34;4968076;28;50066;-77
2022/10/24 09:46:44;;;;;;;;;4.50;2.25;;;;;19.39;70.58;100836.22;4973490;28;49824;-71
2022/10/24 09:49:13;;;;;;;;;3.75;3.00;;;;;19.47;70.55;100833.44;4973234;28;49900;-74
2022/10/24 09:51:46;;;;;;;;;4.00;1.00;;;;;19.52;70.31;100836.06;4972656;28;49836;-76
2022/10/24 09:54:17;;;;;;;;;3.00;1.25;;;;;19.58;70.31;100841.31;4972082;28;49793;-72
2022/10/24 09:56:51;;;;;;;;;6.25;3.50;;;;;19.58;70.66;100839.53;4973011;28;49785;-71
2022/10/24 09:59:34;;;;;;;;;3.25;1.00;;;;;19.67;70.58;100847.38;4973081;28;49706;-77
2022/10/24 10:02:21;;;;;;;;;3.25;2.50;;;;;19.68;70.30;100851.78;4972562;28;52260;-77
2022/10/24 10:05:08;;;;;;;;;3.50;2.00;;;;;19.37;70.24;100802.53;4972450;28;49746;-77
2022/10/24 10:07:36;;;;;;;;;3.75;3.00;;;;;19.56;70.02;100843.13;4972017;28;49722;-76
2022/10/24 10:10:24;;;;;;;;;2.00;1.00;;;;;19.40;70.86;100864.63;4953998;28;49794;-72
2022/10/24 10:13:01;;;;;;;;;2.00;2.00;;;;;19.19;70.54;100840.06;4956472;28;50919;-73
2022/10/24 10:15:38;;;;;;;;;4.00;1.00;;;;;19.23;71.28;100853.31;4956209;28;49904;-77
2022/10/24 10:18:19;;;;;;;;;2.75;2.50;;;;;19.23;71.17;100844.47;4967830;28;49877;-73
2022/10/24 10:20:45;;;;;;;;;3.00;3.00;;;;;19.29;71.04;100831.03;4974050;28;49636;-70
2022/10/24 10:23:28;;;;;;;;;3.00;3.00;;;;;19.49;71.28;100849.41;4965494;28;50551;-79
2022/10/24 10:26:13;;;;;;;;;8.25;4.00;;;;;19.35;70.99;100799.03;4959065;28;49636;-71
2022/10/24 10:29:19;;;;;;;;;2.75;0.50;;;;;18.64;70.64;100694.47;4955793;28;49772;-75
2022/10/24 10:31:49;;;;;;;;;1.75;1.75;;;;;19.71;70.43;100861.53;4964541;28;49846;-70
2022/10/24 10:34:24;;;;;;;;;2.50;2.25;;;;;19.63;71.20;100866.97;4952878;28;49918;-69
2022/10/24 10:36:58;;;;;;;;;2.50;2.50;;;;;19.59;70.85;100861.69;4969599;28;49769;-73
2022/10/24 10:39:26;;;;;;;;;1.50;1.50;;;;;19.65;71.30;100878.47;4968003;28;49624;-88
2022/10/24 10:42:13;;;;;;;;;4.75;3.50;;;;;19.71;70.74;100880.19;4958794;28;49640;-81
2022/10/24 10:45:08;;;;;;;;;1.25;1.00;;;;;19.84;70.88;100875.56;4964155;28;49719;-87
2022/10/24 10:47:56;;;;;;;;;5.00;1.50;;;;;19.96;70.49;100873.56;4963058;28;49622;-87
2022/10/24 10:50:25;;;;;;;;;5.50;0.50;;;;;19.95;69.73;100876.25;4945107;28;50039;-84
2022/10/24 10:52:57;;;;;;;;;4.00;0.50;;;;;19.40;70.58;100781.22;4977279;28;49935;-81
2022/10/24 10:55:23;;;;;;;;;2.50;2.00;;;;;19.96;70.24;100880.69;4974427;28;50633;-78
2022/10/24 10:57:48;;;;;;;;;2.50;1.50;;;;;19.97;70.18;100883.31;4967215;28;49753;-85
2022/10/24 11:00:22;;;;;;;;;2.75;1.50;;;;;19.17;69.71;100728.31;4973160;28;49952;-79
2022/10/24 11:03:03;;;;;;;;;4.25;1.00;;;;;19.68;68.73;100787.00;4974155;28;49873;-80
2022/10/24 11:05:43;;;;;;;;;2.25;2.25;;;;;19.13;68.34;100676.06;4952476;28;50632;-71
2022/10/24 11:08:55;;;;;;;;;2.00;2.00;;;;;20.01;67.65;100817.53;4974583;28;49867;-80
2022/10/24 11:11:28;;;;;;;;;2.50;2.25;;;;;20.38;67.32;100871.09;4974486;28;49599;-70
2022/10/24 11:14:37;;;;;;;;;2.00;0.75;;;;;20.26;67.26;100876.63;4974134;28;49597;-74
2022/10/24 11:17:10;;;;;;;;;7.25;3.75;;;;;20.21;67.71;100879.38;4956504;28;49720;-69
2022/10/24 11:20:07;;;;;;;;;4.75;0.75;;;;;20.15;67.61;100865.28;4971337;28;49793;-76
2022/10/24 11:22:56;;;;;;;;;2.75;2.00;;;;;20.00;68.00;100851.31;4969662;28;49972;-76
2022/10/24 11:25:54;;;;;;;;;4.25;1.50;;;;;19.90;67.66;100839.03;4971543;28;49777;-76
2022/10/24 11:28:25;;;;;;;;;2.25;1.25;;;;;19.89;67.94;100825.75;4970776;28;50914;-77
2022/10/24 11:31:10;;;;;;;;;2.50;1.00;;;;;20.00;67.55;100829.13;4971152;28;49889;-70
2022/10/24 11:33:44;;;;;;;;;4.00;2.50;;;;;18.91;67.21;100670.16;4971130;28;49765;-68
2022/10/24 11:36:29;;;;;;;;;1.50;1.00;;;;;19.13;67.19;100692.91;4971349;28;49723;-70
2022/10/24 11:39:01;;;;;;;;;3.25;2.75;;;;;20.20;67.47;100864.28;4969245;28;51171;-69
2022/10/24 11:42:00;;;;;;;;;1.50;1.25;;;;;20.38;66.95;100878.22;4952761;28;49796;-68
2022/10/24 11:45:00;;;;;;;;;0.75;0.75;;;;;20.47;67.00;100870.09;4952732;28;49912;-74
2022/10/24 11:47:25;;;;;;;;;3.25;1.00;;;;;20.61;66.59;100875.16;4952434;28;49815;-69
2022/10/24 11:50:05;;;;;;;;;1.75;1.75;;;;;20.42;66.30;100821.25;4952349;28;50077;-73
2022/10/24 11:52:36;;;;;;;;;2.50;1.25;;;;;20.84;67.36;100873.84;4951894;28;49747;-75
2022/10/24 11:55:20;;;;;;;;;2.25;2.00;;;;;20.89;68.27;100839.03;4952221;28;49948;-72
2022/10/24 11:57:52;;;;;;;;;1.50;0.75;;;;;21.27;67.33;100862.28;4966509;28;49805;-70
2022/10/24 12:00:23;;;;;;;;;3.00;3.00;;;;;21.24;66.14;100859.66;4970891;28;49998;-69
2022/10/24 12:03:01;;;;;;;;;2.25;2.25;;;;;21.31;65.77;100860.41;4971025;28;49918;-72
2022/10/24 12:05:57;;;;;;;;;2.50;1.25;;;;;20.93;65.35;100826.50;4970788;28;49858;-69
2022/10/24 12:09:13;;;;;;;;;3.50;2.00;;;;;21.25;65.18;100857.88;4952025;28;49741;-70
2022/10/24 12:11:50;;;;;;;;;1.50;0.50;;;;;21.19;65.27;100852.66;4904594;28;50693;-69
2022/10/24 12:14:34;;;;;;;;;1.50;1.50;;;;;21.11;66.38;100856.34;4946503;28;49970;-70
2022/10/24 12:17:23;;;;;;;;;1.75;0.75;;;;;20.99;66.93;100864.63;4934012;28;49803;-70
2022/10/24 12:19:50;;;;;;;;;1.50;1.50;;;;;20.44;66.96;100776.81;4965221;28;50268;-72
2022/10/24 12:22:25;;;;;;;;;1.75;1.00;;;;;20.70;68.34;100829.63;4970516;28;49864;-70
2022/10/24 12:25:04;;;;;;;;;2.25;1.00;;;;;20.74;69.46;100858.00;4935275;28;49631;-75
2022/10/24 12:27:37;;;;;;;;;4.25;2.75;;;;;19.58;69.62;100698.41;4970346;28;49837;-75
2022/10/24 12:30:09;;;;;;;;;2.75;2.00;;;;;20.52;70.34;100858.41;4970622;28;49548;-69
2022/10/24 12:32:39;;;;;;;;;3.25;2.00;;;;;19.49;70.34;100719.81;4952674;28;52557;-72
2022/10/24 12:35:24;;;;;;;;;3.00;2.00;;;;;20.37;70.02;100861.34;4970357;28;49790;-73
2022/10/24 12:37:50;;;;;;;;;3.50;2.25;;;;;20.17;70.21;100847.47;4970554;28;49783;-73
2022/10/24 12:40:46;;;;;;;;;2.50;0.50;;;;;20.29;70.50;100848.16;4970734;28;49611;-75
2022/10/24 12:43:26;;;;;;;;;1.75;1.00;;;;;19.02;70.79;100641.66;4970601;28;51060;-69
2022/10/24 12:45:52;;;;;;;;;2.00;1.00;;;;;20.33;71.17;100854.28;4953245;28;49871;-76
2022/10/24 12:48:32;;;;;;;;;1.50;0.50;;;;;19.12;71.02;100656.56;4955873;28;50124;-69
2022/10/24 12:51:03;;;;;;;;;2.50;0.00;;;;;19.19;71.00;100665.28;4970614;28;49893;-74
2022/10/24 12:53:50;;;;;;;;;3.00;3.00;;;;;20.13;71.07;100789.78;4951240;28;49922;-72
2022/10/24 12:56:17;;;;;;;;;3.25;2.25;;;;;20.23;69.76;100837.56;4964842;28;49670;-74
2022/10/24 12:58:44;;;;;;;;;2.00;1.25;;;;;20.28;69.73;100819.72;4955541;28;49743;-71
2022/10/24 13:01:23;;;;;;;;;2.75;1.50;;;;;19.88;68.53;100754.69;4952050;28;49768;-72
2022/10/24 13:03:57;;;;;;;;;3.00;3.00;;;;;20.53;68.37;100841.50;4951636;28;50688;-72
2022/10/24 13:06:47;;;;;;;;;3.25;2.25;;;;;20.58;67.85;100849.44;4951864;28;49766;-76
2022/10/24 13:09:18;;;;;;;;;0.50;0.00;;;;;20.67;66.68;100845.72;4935037;28;49932;-73
2022/10/24 13:12:35;;;;;;;;;1.00;0.00;;;;;20.71;65.59;100829.59;4960979;28;49821;-74
2022/10/24 13:15:06;;;;;;;;;1.25;1.25;;;;;20.69;65.10;100823.44;4910853;28;51488;-69
2022/10/24 13:18:15;;;;;;;;;0.75;0.00;;;;;19.59;65.19;100652.25;4967447;28;50020;-72
2022/10/24 13:20:45;;;;;;;;;2.25;1.00;;;;;19.94;65.56;100722.63;4954159;28;49787;-68
2022/10/24 13:23:25;;;;;;;;;0.25;0.25;;;;;19.81;65.59;100683.81;4969849;28;49711;-68
2022/10/24 13:26:01;;;;;;;;;2.25;1.75;;;;;20.64;65.76;100838.63;4969828;28;49813;-75
2022/10/24 13:28:29;;;;;;;;;0.75;0.75;;;;;20.64;65.49;100843.97;4969533;28;49849;-71
2022/10/24 13:31:17;;;;;;;;;1.00;1.00;;;;;20.62;65.90;100842.25;4973128;28;49779;-72
2022/10/24 13:33:44;;;;;;;;;3.00;1.50;;;;;19.93;65.77;100740.41;4973230;28;50079;-73
2022/10/24 13:36:15;;;;;;;;;1.75;0.75;;;;;20.70;65.90;100840.31;4973141;28;49804;-73
2022/10/24 13:38:47;;;;;;;;;2.25;0.50;;;;;20.31;65.78;100757.47;4953945;28;49813;-71
2022/10/24 13:41:27;;;;;;;;;2.00;2.00;;;;;20.36;64.64;100766.25;4937151;28;49881;-76
2022/10/24 13:43:59;;;;;;;;;0.00;0.00;;;;;20.32;64.50;100753.03;4973116;28;49693;-75
2022/10/24 13:46:34;;;;;;;;;1.00;0.00;;;;;20.27;64.20;100738.00;4972749;28;49813;-68
2022/10/24 13:49:00;;;;;;;;;3.00;1.00;;;;;20.90;64.22;100819.44;4972958;28;49789;-76
2022/10/24 13:51:49;;;;;;;;;1.25;1.25;;;;;20.95;63.65;100830.03;4972916;28;49776;-76
2022/10/24 13:54:22;;;;;;;;;0.00;0.00;;;;;20.04;63.51;100688.69;4973272;28;49718;-75
2022/10/24 13:56:47;;;;;;;;;0.00;0.00;;;;;20.68;64.53;100813.66;4953982;28;50654;-75
2022/10/24 13:59:31;;;;;;;;;0.00;0.00;;;;;19.78;64.46;100670.53;4954146;28;49892;-69
2022/10/24 14:02:01;;;;;;;;;0.75;0.75;;;;;20.79;64.23;100814.34;4968617;28;49937;-69
2022/10/24 14:04:27;;;;;;;;;1.75;0.75;;;;;20.89;64.07;100835.50;4972950;28;50185;-69
2022/10/24 14:06:59;;;;;;;;;1.50;0.50;;;;;20.09;64.00;100716.16;4958091;28;49956;-75
2022/10/24 14:09:25;;;;;;;;;2.00;0.50;;;;;20.70;63.86;100795.84;4954165;28;49724;-77
2022/10/24 14:11:55;;;;;;;;;0.50;0.50;;;;;19.86;63.48;100637.50;4968388;28;49641;-68
2022/10/24 14:14:34;;;;;;;;;0.50;0.50;;;;;19.92;63.40;100644.53;4972580;28;49700;-73
2022/10/24 14:17:17;;;;;;;;;0.00;0.00;;;;;21.15;63.32;100823.34;4972291;28;50804;-75
2022/10/24 14:19:52;;;;;;;;;1.75;1.75;;;;;21.12;62.93;100804.72;4972144;28;49865;-70
2022/10/24 14:22:20;;;;;;;;;2.00;1.00;;;;;21.19;62.56;100829.50;4953675;28;49597;-68
2022/10/24 14:24:47;;;;;;;;;1.50;0.75;;;;;21.17;62.84;100836.66;4953746;28;49850;-70
2022/10/24 14:27:13;;;;;;;;;2.50;1.00;;;;;20.60;62.90;100727.59;4953556;28;49842;-75
2022/10/24 14:29:38;;;;;;;;;2.50;1.25;;;;;20.89;62.74;100788.34;4953639;28;49924;-74
2022/10/24 14:32:06;;;;;;;;;0.75;0.75;;;;;20.91;62.64;100772.28;4953647;28;49997;-68
2022/10/24 14:34:35;;;;;;;;;0.75;0.00;;;;;21.35;62.79;100848.78;4953879;28;49787;-72
2022/10/24 14:37:07;;;;;;;;;1.00;0.75;;;;;21.43;63.03;100838.81;4965488;28;51224;-71
2022/10/24 14:39:34;;;;;;;;;4.00;1.75;;;;;21.35;62.64;100830.97;4971764;28;49687;-75
2022/10/24 14:42:00;;;;;;;;;2.75;0.50;;;;;21.42;63.16;100839.69;4972398;28;49803;-71
2022/10/24 14:44:27;;;;;;;;;2.50;0.75;;;;;20.70;63.28;100725.59;4972440;28;49821;-72
2022/10/24 14:47:05;;;;;;;;;0.25;0.00;;;;;20.66;63.61;100775.50;4954628;28;51723;-69
2022/10/24 14:49:35;;;;;;;;;1.50;1.50;;;;;20.67;64.02;100758.56;4958514;28;49908;-71
2022/10/24 14:52:16;;;;;;;;;0.75;0.50;;;;;20.52;63.95;100740.19;4953044;28;49777;-73
2022/10/24 14:54:58;;;;;;;;;0.75;0.75;;;;;21.12;64.34;100867.91;4953603;28;49943;-69
2022/10/24 14:57:24;;;;;;;;;3.00;0.50;;;;;19.75;64.76;100663.47;4953142;28;49725;-70
2022/10/24 14:59:52;;;;;;;;;3.25;1.00;;;;;20.85;64.62;100838.22;4953572;28;50091;-69
2022/10/24 15:02:39;;;;;;;;;1.50;0.25;;;;;20.85;65.12;100862.25;4953409;28;49810;-76
2022/10/24 15:05:18;;;;;;;;;0.25;0.25;;;;;19.92;65.29;100728.00;4966745;28;50093;-73
2022/10/24 15:07:45;;;;;;;;;1.25;0.75;;;;;20.62;65.49;100844.91;4971765;28;50753;-76
2022/10/24 15:10:10;;;;;;;;;0.25;0.25;;;;;20.63;65.98;100860.88;4957671;28;50385;-74
2022/10/24 15:12:45;;;;;;;;;0.75;0.75;;;;;19.77;66.20;100720.25;4935925;28;49931;-74
2022/10/24 15:15:17;;;;;;;;;2.50;1.00;;;;;20.39;66.71;100862.19;4954973;28;49912;-74
2022/10/24 15:17:42;;;;;;;;;12.00;8.75;;;;;19.50;67.43;100734.91;4954021;28;50468;-68
2022/10/24 15:20:14;;;;;;;;;0.50;0.50;;;;;20.12;67.41;100844.88;4954554;28;49728;-75
2022/10/24 15:22:47;;;;;;;;;0.75;0.75;;;;;20.25;67.40;100875.75;4954333;28;49913;-75
2022/10/24 15:25:23;;;;;;;;;2.00;0.50;;;;;20.22;67.44;100873.13;4954460;28;50057;-69
2022/10/24 15:27:53;;;;;;;;;3.00;0.75;;;;;19.39;67.87;100736.84;4964287;28;49807;-73
2022/10/24 15:30:22;;;;;;;;;3.50;1.75;;;;;20.06;68.12;100857.44;4971934;28;49765;-72
2022/10/24 15:32:49;;;;;;;;;1.75;1.75;;;;;19.87;68.28;100856.84;4971595;28;49814;-73
2022/10/24 15:35:16;;;;;;;;;0.00;0.00;;;;;19.58;68.34;100830.66;4971512;28;49989;-69
2022/10/24 15:37:57;;;;;;;;;0.50;0.50;;;;;19.06;68.61;100765.72;4970987;28;50433;-75
2022/10/24 15:40:27;;;;;;;;;3.50;1.00;;;;;19.53;68.72;100813.84;4965607;28;49857;-73
2022/10/24 15:42:52;;;;;;;;;3.25;1.25;;;;;20.05;69.04;100914.28;4958636;28;49786;-70
2022/10/24 15:45:18;;;;;;;;;2.25;0.00;;;;;19.55;68.50;100862.63;4952884;28;49608;-68
2022/10/24 15:47:44;;;;;;;;;0.00;0.00;;;;;19.71;68.84;100883.72;4952370;28;50820;-71
2022/10/24 15:50:14;;;;;;;;;1.00;1.00;;;;;19.83;68.73;100929.75;4952209;28;49705;-70
2022/10/24 15:52:39;;;;;;;;;2.25;1.00;;;;;19.19;68.89;100830.28;4951549;28;49738;-76
2022/10/24 15:55:05;;;;;;;;;1.75;0.25;;;;;19.48;69.67;100884.91;4935316;28;50290;-69
2022/10/24 15:57:30;;;;;;;;;0.50;0.50;;;;;19.73;70.98;100924.53;4964988;28;49817;-69
2022/10/24 15:59:56;;;;;;;;;4.00;1.00;;;;;19.73;71.36;100950.28;4952528;28;49802;-71
2022/10/24 16:02:23;;;;;;;;;0.00;0.00;;;;;19.06;74.18;100810.97;4970292;28;49741;-69
2022/10/24 16:04:49;;;;;;;;;0.00;0.00;;;;;19.07;73.44;100849.97;4966440;28;49779;-72
2022/10/24 16:07:15;;;;;;;;;0.00;0.00;;;;;19.75;74.67;100940.50;4952307;28;50667;-77
2022/10/24 16:09:41;;;;;;;;;0.75;0.75;;;;;18.72;73.90;100746.69;4952141;28;49763;-69
2022/10/24 16:12:11;;;;;;;;;1.00;0.00;;;;;18.59;73.95;100723.75;4915630;28;49805;-76
2022/10/24 16:14:36;;;;;;;;;1.25;1.25;;;;;19.78;73.91;100903.16;4933381;28;49755;-77
2022/10/24 16:17:02;;;;;;;;;2.00;0.50;;;;;19.86;73.01;100927.91;4932936;28;50345;-78
2022/10/24 16:19:27;;;;;;;;;2.00;1.25;;;;;19.44;72.82;100898.28;4933470;28;49830;-69
2022/10/24 16:21:57;;;;;;;;;1.00;0.00;;;;;19.60;72.74;100922.09;4932859;28;49957;-70
2022/10/24 16:24:24;;;;;;;;;0.00;0.00;;;;;19.65;72.92;100953.06;4911781;28;50039;-71
2022/10/24 16:26:50;;;;;;;;;2.00;1.75;;;;;19.57;72.72;100930.97;4912946;28;51103;-72
2022/10/24 16:29:15;;;;;;;;;3.75;1.00;;;;;18.64;73.30;100784.88;4913667;28;49696;-71
2022/10/24 16:31:41;;;;;;;;;5.00;4.25;;;;;18.68;73.41;100816.75;4922629;28;49886;-80
2022/10/24 16:34:07;;;;;;;;;3.75;3.00;;;;;18.47;74.00;100796.56;4925976;28;49778;-69
2022/10/24 16:36:33;;;;;;;;;9.00;7.50;;;;;18.55;73.51;100810.66;4932141;28;50719;-77
2022/10/24 16:38:58;;;;;;;;;7.50;6.00;;;;;19.21;74.46;100955.38;4930962;28;49903;-70
2022/10/24 16:41:24;;;;;;;;;6.00;3.25;;;;;18.97;74.23;100916.59;4920734;28;49803;-76
2022/10/24 16:43:54;;;;;;;;;6.50;5.50;;;;;19.07;74.16;100958.19;4932584;28;50535;-74
2022/10/24 16:46:21;;;;;;;;;4.50;3.25;;;;;18.30;74.24;100857.00;4932101;28;51477;-75
2022/10/24 16:48:46;;;;;;;;;3.25;2.50;;;;;17.89;74.72;100770.59;4931850;28;49716;-77
2022/10/24 16:51:15;;;;;;;;;2.50;2.50;;;;;17.50;75.09;100713.38;4930786;28;49839;-74
2022/10/24 16:53:41;;;;;;;;;1.50;1.50;;;;;18.89;75.38;100959.25;4931858;28;50074;-73
2022/10/24 16:56:11;;;;;;;;;1.00;1.00;;;;;18.40;75.58;100908.28;4931754;28;49782;-75
2022/10/24 16:58:37;;;;;;;;;1.00;1.00;;;;;18.12;75.72;100854.50;4932057;28;49754;-74
2022/10/24 17:01:08;;;;;;;;;2.00;1.75;;;;;18.08;75.03;100851.00;4931693;28;50151;-80
2022/10/24 17:03:34;;;;;;;;;4.00;3.00;;;;;17.95;75.86;100866.16;4919464;28;50123;-74
2022/10/24 17:06:00;;;;;;;;;1.75;1.50;;;;;17.55;76.34;100796.47;4916677;28;51014;-77
2022/10/24 17:08:26;;;;;;;;;0.75;0.75;;;;;17.69;76.43;100847.75;4916598;28;49824;-73
2022/10/24 17:10:56;;;;;;;;;1.00;1.00;;;;;17.81;76.20;100857.41;4916749;28;49648;-74
2022/10/24 17:13:22;;;;;;;;;0.00;0.00;;;;;17.09;76.10;100751.69;4916766;28;49643;-80
2022/10/24 17:15:48;;;;;;;;;2.00;2.00;;;;;16.98;76.54;100734.94;4916542;28;50117;-74
2022/10/24 17:18:13;;;;;;;;;1.50;1.25;;;;;18.46;76.62;100990.63;4916920;28;49657;-75
2022/10/24 17:20:43;;;;;;;;;3.50;1.50;;;;;18.21;77.07;100958.03;4917733;28;49671;-78
2022/10/24 17:23:11;;;;;;;;;1.25;1.25;;;;;18.37;77.15;100994.25;4931120;28;50345;-73
2022/10/24 17:25:37;;;;;;;;;1.00;1.00;;;;;17.16;77.37;100808.22;4936838;28;49970;-81
2022/10/24 17:28:02;;;;;;;;;1.00;0.00;;;;;17.07;77.60;100779.09;4936993;28;49817;-73
2022/10/24 17:30:31;;;;;;;;;3.00;1.00;;;;;17.56;77.92;100895.56;4955538;28;49794;-73
2022/10/24 17:32:56;;;;;;;;;0.75;0.25;;;;;18.28;77.99;101000.50;4924545;28;49984;-74
2022/10/24 17:35:23;;;;;;;;;2.50;2.50;;;;;18.22;78.45;101008.50;4941555;28;50623;-79
2022/10/24 17:38:10;;;;;;;;;1.75;1.75;;;;;17.48;78.47;100905.38;4955187;28;49962;-80
2022/10/24 17:40:49;;;;;;;;;2.75;1.75;;;;;18.10;78.70;101013.03;4955487;28;49831;-69
2022/10/24 17:43:22;;;;;;;;;8.25;8.25;;;;;18.12;78.88;101025.41;4919682;28;49923;-72
2022/10/24 17:45:48;;;;;;;;;2.75;2.75;;;;;17.82;78.54;100996.38;4939087;28;49782;-77
2022/10/24 17:48:14;;;;;;;;;5.00;2.25;;;;;17.32;79.04;100926.66;4935864;28;49760;-71
2022/10/24 17:50:40;;;;;;;;;4.25;3.00;;;;;17.90;78.41;101021.13;4933210;28;50030;-70
2022/10/24 17:53:07;;;;;;;;;1.25;1.25;;;;;17.69;78.82;100984.91;4941504;28;49853;-69
2022/10/24 17:55:35;;;;;;;;;0.25;0.25;;;;;18.02;78.89;101044.94;4951474;28;50380;-73
2022/10/24 17:58:00;;;;;;;;;2.00;1.00;;;;;17.03;78.58;100894.06;4952406;28;49842;-76
2022/10/24 18:00:25;;;;;;;;;1.25;1.25;;;;;17.65;78.82;101020.28;4953865;28;50822;-70
2022/10/24 18:02:52;;;;;;;;;2.00;1.00;;;;;17.92;78.81;101059.16;4946270;28;49586;-70
2022/10/24 18:05:19;;;;;;;;;4.00;1.75;;;;;17.19;78.80;100971.81;4934456;28;49948;-73
2022/10/24 18:07:45;;;;;;;;;1.00;1.00;;;;;17.88;78.93;101068.06;4935076;28;49720;-71
2022/10/24 18:10:12;;;;;;;;;1.00;1.00;;;;;16.68;78.66;100899.41;4934591;28;49770;-74
2022/10/24 18:12:39;;;;;;;;;1.00;1.00;;;;;17.87;79.08;101077.78;4951224;28;50024;-70
2022/10/24 18:15:07;;;;;;;;;1.00;1.00;;;;;17.53;79.19;101031.84;4933437;28;50590;-70
2022/10/24 18:17:32;;;;;;;;;1.00;1.00;;;;;17.75;79.79;101064.53;4935163;28;50016;-70
2022/10/24 18:19:58;;;;;;;;;3.00;2.25;;;;;17.25;79.37;101003.63;4940254;28;49919;-73
2022/10/24 18:22:23;;;;;;;;;2.75;1.75;;;;;17.45;79.73;101030.97;4939438;28;49888;-72
2022/10/24 18:24:49;;;;;;;;;1.00;1.00;;;;;17.75;79.51;101091.09;4934352;28;50422;-74
2022/10/24 18:27:14;;;;;;;;;1.00;1.00;;;;;17.05;79.77;100980.69;4923389;28;49604;-75
2022/10/24 18:29:39;;;;;;;;;1.00;1.00;;;;;17.35;79.85;101027.47;4957125;28;49626;-75
2022/10/24 18:32:05;;;;;;;;;3.25;1.00;;;;;16.67;79.36;100932.09;4947145;28;49741;-73
2022/10/24 18:34:30;;;;;;;;;0.25;0.00;;;;;17.21;79.74;101009.84;4940043;28;49738;-71
2022/10/24 18:36:55;;;;;;;;;2.00;1.00;;;;;17.43;79.51;101080.53;4963149;28;49610;-69
2022/10/24 18:39:21;;;;;;;;;0.75;0.75;;;;;16.62;79.55;100929.47;4974673;28;49656;-77
2022/10/24 18:41:50;;;;;;;;;2.00;2.00;;;;;16.88;79.52;100990.44;4936579;28;49579;-70
2022/10/24 18:44:21;;;;;;;;;4.25;1.75;;;;;17.51;79.83;101078.75;4960272;28;50192;-75
2022/10/24 18:46:46;;;;;;;;;1.00;0.50;;;;;17.63;79.43;101096.41;4938654;28;49889;-72
2022/10/24 18:49:13;;;;;;;;;2.00;0.75;;;;;16.84;79.98;100978.97;4946991;28;49898;-71
2022/10/24 18:51:42;;;;;;;;;1.00;1.00;;;;;16.83;79.50;100971.00;4947008;28;50041;-73
2022/10/24 18:54:15;;;;;;;;;4.00;1.50;;;;;17.58;79.69;101109.72;4938244;28;49941;-72
2022/10/24 18:56:41;;;;;;;;;2.25;1.50;;;;;17.55;79.98;101115.00;4936823;28;49976;-71
2022/10/24 18:59:17;;;;;;;;;2.50;2.25;;;;;17.20;79.92;101066.44;4952599;28;49881;-71
2022/10/24 19:02:20;;;;;;;;;1.50;1.00;;;;;17.52;80.11;101125.66;4917650;28;49914;-77
2022/10/24 19:04:51;;;;;;;;;1.50;1.50;;;;;17.00;80.32;101043.47;4952554;28;50878;-72
2022/10/24 19:07:17;;;;;;;;;1.25;0.00;;;;;17.30;80.20;101102.69;4934694;28;49884;-75
2022/10/24 19:09:43;;;;;;;;;2.00;1.00;;;;;17.47;80.40;101130.09;4952143;28;50103;-78
2022/10/24 19:12:09;;;;;;;;;0.75;0.75;;;;;16.97;80.54;101053.19;4952329;28;49771;-82